Time,TemperatureF,DewpointF,PressureIn,WindDirection,WindDirectionDegrees,WindSpeedMPH,WindSpeedGustMPH,Humidity,HourlyPrecipIn,Conditions,Clouds,dailyrainin,SoftwareType,DateUTC
2015-08-27 00:12:00,62.3,61.0,29.95,WNW,294,0.0,0.0,96,0.00,,,0.00,weatherlink.com 1.10,2015-08-27 04:12:00,
2015-08-27 00:27:00,62.0,61.0,29.95,WNW,294,0.0,0.0,96,0.00,,,0.00,weatherlink.com 1.10,2015-08-27 04:27:00,
2015-08-27 00:42:00,62.1,61.0,29.95,WNW,294,0.0,0.0,97,0.00,,,0.00,weatherlink.com 1.10,2015-08-27 04:42:00,
2015-08-27 00:57:00,62.0,61.0,29.95,WNW,294,0.0,0.0,97,0.00,,,0.00,weatherlink.com 1.10,2015-08-27 04:57:00,
2015-08-27 01:12:00,62.0,61.0,29.95,WNW,294,0.0,0.0,97,0.00,,,0.00,weatherlink.com 1.10,2015-08-27 05:12:00,
2015-08-27 01:27:00,62.2,61.0,29.95,WNW,294,0.0,0.0,97,0.00,,,0.00,weatherlink.com 1.10,2015-08-27 05:27:00,
2015-08-27 01:42:00,62.4,62.0,29.95,WNW,294,0.0,0.0,97,0.00,,,0.00,weatherlink.com 1.10,2015-08-27 05:42:00,
2015-08-27 01:57:00,62.4,62.0,29.95,WNW,294,0.0,0.0,97,0.00,,,0.00,weatherlink.com 1.10,2015-08-27 05:57:00,
2015-08-27 02:12:00,61.9,61.0,29.94,WNW,294,0.0,0.0,97,0.00,,,0.00,weatherlink.com 1.10,2015-08-27 06:12:00,
2015-08-27 02:27:00,61.7,61.0,29.94,WNW,294,0.0,0.0,97,0.00,,,0.00,weatherlink.com 1.10,2015-08-27 06:27:00,
2015-08-27 02:42:00,61.6,61.0,29.94,WNW,294,0.0,0.0,97,0.00,,,0.00,weatherlink.com 1.10,2015-08-27 06:42:00,
2015-08-27 02:57:00,61.5,60.0,29.93,WNW,294,0.0,0.0,96,0.00,,,0.00,weatherlink.com 1.10,2015-08-27 06:57:00,
2015-08-27 03:12:00,61.1,60.0,29.93,WNW,294,0.0,0.0,96,0.00,,,0.00,weatherlink.com 1.10,2015-08-27 07:12:00,
2015-08-27 03:27:00,60.7,60.0,29.94,WNW,294,0.0,0.0,96,0.00,,,0.00,weatherlink.com 1.10,2015-08-27 07:27:00,
2015-08-27 03:42:00,60.6,60.0,29.93,WNW,294,0.0,0.0,96,0.00,,,0.00,weatherlink.com 1.10,2015-08-27 07:42:00,
2015-08-27 03:57:00,60.4,60.0,29.93,WNW,294,0.0,0.0,97,0.00,,,0.00,weatherlink.com 1.10,2015-08-27 07:57:00,
2015-08-27 04:12:00,60.1,59.0,29.93,WNW,294,0.0,0.0,97,0.00,,,0.00,weatherlink.com 1.10,2015-08-27 08:12:00,
2015-08-27 04:27:00,60.1,59.0,29.93,WNW,294,0.0,0.0,97,0.00,,,0.00,weatherlink.com 1.10,2015-08-27 08:27:00,
2015-08-27 04:42:00,60.1,59.0,29.93,WNW,294,0.0,0.0,96,0.00,,,0.00,weatherlink.com 1.10,2015-08-27 08:42:00,
2015-08-27 04:57:00,60.3,59.0,29.93,WNW,294,0.0,0.0,96,0.00,,,0.00,weatherlink.com 1.10,2015-08-27 08:57:00,
2015-08-27 05:12:00,60.5,59.0,29.93,WNW,294,0.0,0.0,94,0.00,,,0.00,weatherlink.com 1.10,2015-08-27 09:12:00,
2015-08-27 05:27:00,60.8,59.0,29.94,WNW,294,0.0,0.0,93,0.00,,,0.00,weatherlink.com 1.10,2015-08-27 09:27:00,
2015-08-27 05:42:00,61.0,59.0,29.94,WNW,294,0.0,0.0,93,0.00,,,0.00,weatherlink.com 1.10,2015-08-27 09:42:00,
2015-08-27 05:57:00,60.8,59.0,29.95,WNW,293,0.0,0.0,94,0.00,,,0.00,weatherlink.com 1.10,2015-08-27 09:57:00,
2015-08-27 06:13:00,60.8,59.0,29.95,WNW,292,0.0,0.0,93,0.00,,,0.00,weatherlink.com 1.10,2015-08-27 10:13:00,
2015-08-27 06:28:00,60.8,59.0,29.96,WNW,292,0.0,0.0,93,0.00,,,0.00,weatherlink.com 1.10,2015-08-27 10:28:00,
2015-08-27 06:43:00,60.6,59.0,29.95,WNW,293,0.0,0.0,94,0.00,,,0.00,weatherlink.com 1.10,2015-08-27 10:43:00,
2015-08-27 06:58:00,60.5,59.0,29.96,WNW,293,0.0,0.0,93,0.00,,,0.00,weatherlink.com 1.10,2015-08-27 10:58:00,
2015-08-27 07:13:00,60.9,58.0,29.97,WNW,293,0.0,0.0,91,0.00,,,0.00,weatherlink.com 1.10,2015-08-27 11:13:00,
2015-08-27 07:28:00,61.7,59.0,29.98,WNW,292,0.0,0.0,91,0.00,,,0.00,weatherlink.com 1.10,2015-08-27 11:28:00,
2015-08-27 07:43:00,62.5,60.0,29.98,WNW,292,0.0,0.0,90,0.00,,,0.00,weatherlink.com 1.10,2015-08-27 11:43:00,
2015-08-27 07:58:00,63.0,59.0,29.98,WNW,293,0.0,0.0,88,0.00,,,0.00,weatherlink.com 1.10,2015-08-27 11:58:00,
2015-08-27 08:13:00,63.5,60.0,29.98,WNW,292,0.0,0.0,87,0.00,,,0.00,weatherlink.com 1.10,2015-08-27 12:13:00,
2015-08-27 08:28:00,63.9,60.0,29.98,WNW,292,0.0,0.0,86,0.00,,,0.00,weatherlink.com 1.10,2015-08-27 12:28:00,
2015-08-27 08:43:00,64.1,59.0,29.98,WSW,241,0.0,2.0,84,0.00,,,0.00,weatherlink.com 1.10,2015-08-27 12:43:00,
2015-08-27 08:58:00,64.5,59.0,29.99,SW,232,0.0,3.0,83,0.00,,,0.00,weatherlink.com 1.10,2015-08-27 12:58:00,
2015-08-27 09:13:00,64.7,59.0,29.99,SW,225,0.0,2.0,83,0.00,,,0.00,weatherlink.com 1.10,2015-08-27 13:13:00,
2015-08-27 09:28:00,64.8,59.0,30.00,WNW,285,0.0,5.0,82,0.00,,,0.00,weatherlink.com 1.10,2015-08-27 13:28:00,
2015-08-27 09:43:00,64.8,60.0,30.00,West,273,0.0,2.0,83,0.00,,,0.00,weatherlink.com 1.10,2015-08-27 13:43:00,
2015-08-27 09:58:00,65.0,59.0,30.00,West,259,0.0,5.0,82,0.00,,,0.00,weatherlink.com 1.10,2015-08-27 13:58:00,
2015-08-27 10:13:00,65.5,60.0,30.00,West,259,0.0,1.0,81,0.00,,,0.00,weatherlink.com 1.10,2015-08-27 14:13:00,
2015-08-27 10:28:00,65.6,60.0,30.01,West,259,0.0,1.0,81,0.00,,,0.00,weatherlink.com 1.10,2015-08-27 14:28:00,
2015-08-27 10:43:00,65.6,60.0,30.01,West,269,0.0,1.0,82,0.00,,,0.00,weatherlink.com 1.10,2015-08-27 14:43:00,
2015-08-27 10:58:00,65.6,60.0,30.02,West,278,0.0,1.0,82,0.00,,,0.00,weatherlink.com 1.10,2015-08-27 14:58:00,
2015-08-27 11:13:00,65.6,60.0,30.02,NW,324,0.0,2.0,82,0.00,,,0.00,weatherlink.com 1.10,2015-08-27 15:13:00,
2015-08-27 11:28:00,65.4,61.0,30.02,NNW,329,0.0,3.0,84,0.00,,,0.00,weatherlink.com 1.10,2015-08-27 15:28:00,
2015-08-27 11:43:00,66.4,59.0,30.01,WNW,295,0.0,3.0,78,0.00,,,0.00,weatherlink.com 1.10,2015-08-27 15:43:00,
2015-08-27 11:58:00,67.7,60.0,30.01,NE,49,3.0,3.0,75,0.00,,,0.00,weatherlink.com 1.10,2015-08-27 15:58:00,
2015-08-27 12:13:00,68.4,60.0,30.01,NE,45,3.0,4.0,75,0.00,,,0.00,weatherlink.com 1.10,2015-08-27 16:13:00,
2015-08-27 12:28:00,69.7,60.0,30.00,North,9,1.0,3.0,72,0.00,,,0.00,weatherlink.com 1.10,2015-08-27 16:28:00,
2015-08-27 12:43:00,71.0,60.0,30.00,WNW,284,0.0,3.0,68,0.00,,,0.00,weatherlink.com 1.10,2015-08-27 16:43:00,
2015-08-27 12:58:00,71.7,59.0,29.99,West,265,0.0,1.0,65,0.00,,,0.00,weatherlink.com 1.10,2015-08-27 16:58:00,
2015-08-27 13:13:00,72.2,60.0,29.99,NW,319,0.0,3.0,65,0.00,,,0.00,weatherlink.com 1.10,2015-08-27 17:13:00,
2015-08-27 13:29:00,72.1,60.0,29.99,NW,305,0.0,4.0,65,0.00,,,0.00,weatherlink.com 1.10,2015-08-27 17:29:00,
2015-08-27 13:44:00,71.8,58.0,30.00,NNW,344,2.0,2.0,62,0.00,,,0.00,weatherlink.com 1.10,2015-08-27 17:44:00,
2015-08-27 13:59:00,73.3,57.0,29.99,West,260,1.0,6.0,56,0.00,,,0.00,weatherlink.com 1.10,2015-08-27 17:59:00,
2015-08-27 14:14:00,73.4,56.0,30.00,SSW,209,4.0,8.0,55,0.00,,,0.00,weatherlink.com 1.10,2015-08-27 18:14:00,
2015-08-27 14:29:00,73.3,56.0,30.00,NW,313,0.0,4.0,55,0.00,,,0.00,weatherlink.com 1.10,2015-08-27 18:29:00,
2015-08-27 14:44:00,73.3,56.0,30.00,WSW,258,1.0,3.0,54,0.00,,,0.00,weatherlink.com 1.10,2015-08-27 18:44:00,
2015-08-27 14:59:00,72.0,56.0,30.00,NNW,331,1.0,4.0,58,0.00,,,0.00,weatherlink.com 1.10,2015-08-27 18:59:00,
2015-08-27 15:14:00,71.9,56.0,30.00,NNW,328,1.0,3.0,57,0.00,,,0.00,weatherlink.com 1.10,2015-08-27 19:14:00,
2015-08-27 15:29:00,72.1,56.0,29.99,NNW,327,0.0,3.0,58,0.00,,,0.00,weatherlink.com 1.10,2015-08-27 19:29:00,
2015-08-27 15:44:00,72.8,57.0,29.98,NW,324,0.0,4.0,57,0.00,,,0.00,weatherlink.com 1.10,2015-08-27 19:44:00,
2015-08-27 15:59:00,73.1,57.0,29.99,North,359,3.0,5.0,57,0.00,,,0.00,weatherlink.com 1.10,2015-08-27 19:59:00,
2015-08-27 16:14:00,72.7,57.0,29.99,NNW,344,0.0,3.0,58,0.00,,,0.00,weatherlink.com 1.10,2015-08-27 20:14:00,
2015-08-27 16:29:00,72.4,57.0,29.99,NW,317,0.0,3.0,58,0.00,,,0.00,weatherlink.com 1.10,2015-08-27 20:29:00,
2015-08-27 16:44:00,72.4,57.0,29.99,NW,323,0.0,2.0,59,0.00,,,0.00,weatherlink.com 1.10,2015-08-27 20:44:00,
2015-08-27 16:59:00,73.7,56.0,29.99,NNW,347,2.0,4.0,55,0.00,,,0.00,weatherlink.com 1.10,2015-08-27 20:59:00,
2015-08-27 17:14:00,73.5,56.0,29.99,NW,317,1.0,3.0,55,0.00,,,0.00,weatherlink.com 1.10,2015-08-27 21:14:00,
2015-08-27 17:29:00,72.8,56.0,29.99,NW,321,1.0,5.0,56,0.00,,,0.00,weatherlink.com 1.10,2015-08-27 21:29:00,
2015-08-27 17:44:00,73.0,56.0,29.99,NW,313,0.0,4.0,55,0.00,,,0.00,weatherlink.com 1.10,2015-08-27 21:44:00,
2015-08-27 17:59:00,72.3,57.0,30.00,NNW,331,0.0,2.0,58,0.00,,,0.00,weatherlink.com 1.10,2015-08-27 21:59:00,